sensor_id;sensor_type;location;lat;lon;timestamp;temperature;humidity
18225;DHT22;9237;48.590;8.854;2023-12-04T00:02:25;-8.30;99.90
18225;DHT22;9237;48.590;8.854;2023-12-04T00:04:52;-8.30;99.90
18225;DHT22;9237;48.590;8.854;2023-12-04T00:07:18;-8.40;99.90
18225;DHT22;9237;48.590;8.854;2023-12-04T00:09:45;-8.50;99.90
18225;DHT22;9237;48.590;8.854;2023-12-04T00:12:12;-8.50;99.90
18225;DHT22;9237;48.590;8.854;2023-12-04T00:14:39;-8.50;99.90
18225;DHT22;9237;48.590;8.854;2023-12-04T00:17:06;-8.50;99.90
18225;DHT22;9237;48.590;8.854;2023-12-04T00:19:34;-8.60;99.90
18225;DHT22;9237;48.590;8.854;2023-12-04T00:22:01;-8.70;99.90
18225;DHT22;9237;48.590;8.854;2023-12-04T00:24:28;-8.70;99.90
18225;DHT22;9237;48.590;8.854;2023-12-04T00:26:54;-8.80;99.90
18225;DHT22;9237;48.590;8.854;2023-12-04T00:29:21;-9.00;99.90
18225;DHT22;9237;48.590;8.854;2023-12-04T00:31:48;-9.00;99.90
18225;DHT22;9237;48.590;8.854;2023-12-04T00:34:14;-9.00;99.90
18225;DHT22;9237;48.590;8.854;2023-12-04T00:36:42;-9.10;99.90
18225;DHT22;9237;48.590;8.854;2023-12-04T00:39:10;-9.00;99.90
18225;DHT22;9237;48.590;8.854;2023-12-04T00:41:36;-9.00;99.90
18225;DHT22;9237;48.590;8.854;2023-12-04T00:44:03;-8.90;99.90
18225;DHT22;9237;48.590;8.854;2023-12-04T00:46:30;-9.00;99.90
18225;DHT22;9237;48.590;8.854;2023-12-04T00:48:57;-9.00;99.90
18225;DHT22;9237;48.590;8.854;2023-12-04T00:51:24;-9.00;99.90
18225;DHT22;9237;48.590;8.854;2023-12-04T00:53:52;-9.00;99.90
18225;DHT22;9237;48.590;8.854;2023-12-04T00:56:19;-8.10;99.90
18225;DHT22;9237;48.590;8.854;2023-12-04T00:58:46;-8.90;99.90
18225;DHT22;9237;48.590;8.854;2023-12-04T01:01:13;-8.90;99.90
18225;DHT22;9237;48.590;8.854;2023-12-04T01:03:39;-8.90;99.90
18225;DHT22;9237;48.590;8.854;2023-12-04T01:06:07;-9.00;99.90
18225;DHT22;9237;48.590;8.854;2023-12-04T01:08:33;-9.10;99.90
18225;DHT22;9237;48.590;8.854;2023-12-04T01:11:01;-9.10;99.90
18225;DHT22;9237;48.590;8.854;2023-12-04T01:13:28;-9.10;99.90
18225;DHT22;9237;48.590;8.854;2023-12-04T01:15:55;-9.10;99.90
18225;DHT22;9237;48.590;8.854;2023-12-04T01:18:22;-9.00;99.90
18225;DHT22;9237;48.590;8.854;2023-12-04T01:20:48;-8.90;99.90
18225;DHT22;9237;48.590;8.854;2023-12-04T01:23:15;-8.90;99.90
18225;DHT22;9237;48.590;8.854;2023-12-04T01:25:42;-9.00;99.90
18225;DHT22;9237;48.590;8.854;2023-12-04T01:28:11;-8.90;99.90
18225;DHT22;9237;48.590;8.854;2023-12-04T01:30:39;-8.90;99.90
18225;DHT22;9237;48.590;8.854;2023-12-04T01:33:07;-8.80;99.90
18225;DHT22;9237;48.590;8.854;2023-12-04T01:35:34;-8.60;99.90
18225;DHT22;9237;48.590;8.854;2023-12-04T01:38:01;-8.50;99.90
18225;DHT22;9237;48.590;8.854;2023-12-04T01:40:27;-8.40;99.90
18225;DHT22;9237;48.590;8.854;2023-12-04T01:42:54;-8.30;99.90
18225;DHT22;9237;48.590;8.854;2023-12-04T01:45:22;-8.30;99.90
18225;DHT22;9237;48.590;8.854;2023-12-04T01:47:49;-8.30;99.90
18225;DHT22;9237;48.590;8.854;2023-12-04T01:50:16;-8.40;99.90
18225;DHT22;9237;48.590;8.854;2023-12-04T01:52:43;-8.40;99.90
18225;DHT22;9237;48.590;8.854;2023-12-04T01:55:10;-8.50;99.90
18225;DHT22;9237;48.590;8.854;2023-12-04T01:57:37;-8.50;99.90
18225;DHT22;9237;48.590;8.854;2023-12-04T02:00:05;-8.60;99.90
18225;DHT22;9237;48.590;8.854;2023-12-04T02:02:38;-8.60;99.90
18225;DHT22;9237;48.590;8.854;2023-12-04T02:05:05;-8.60;99.90
18225;DHT22;9237;48.590;8.854;2023-12-04T02:07:33;-8.70;99.90
18225;DHT22;9237;48.590;8.854;2023-12-04T02:10:01;-8.70;99.90
18225;DHT22;9237;48.590;8.854;2023-12-04T02:12:28;-8.60;99.90
18225;DHT22;9237;48.590;8.854;2023-12-04T02:14:54;-8.80;99.90
18225;DHT22;9237;48.590;8.854;2023-12-04T02:17:22;-8.80;99.90
18225;DHT22;9237;48.590;8.854;2023-12-04T02:19:50;-8.80;99.90
18225;DHT22;9237;48.590;8.854;2023-12-04T02:22:18;-8.70;99.90
18225;DHT22;9237;48.590;8.854;2023-12-04T02:24:46;-8.80;99.90
18225;DHT22;9237;48.590;8.854;2023-12-04T02:27:17;-8.90;99.90
18225;DHT22;9237;48.590;8.854;2023-12-04T02:29:47;-9.00;99.90
18225;DHT22;9237;48.590;8.854;2023-12-04T02:32:19;-9.10;99.90
18225;DHT22;9237;48.590;8.854;2023-12-04T02:34:47;-9.00;99.90
18225;DHT22;9237;48.590;8.854;2023-12-04T02:37:14;-9.00;99.90
18225;DHT22;9237;48.590;8.854;2023-12-04T02:39:42;-9.00;99.90
18225;DHT22;9237;48.590;8.854;2023-12-04T02:42:11;-9.00;99.90
18225;DHT22;9237;48.590;8.854;2023-12-04T02:44:39;-9.00;99.90
18225;DHT22;9237;48.590;8.854;2023-12-04T02:47:06;-8.90;99.90
18225;DHT22;9237;48.590;8.854;2023-12-04T02:49:34;-8.80;99.90
18225;DHT22;9237;48.590;8.854;2023-12-04T02:52:01;-8.60;99.90
18225;DHT22;9237;48.590;8.854;2023-12-04T02:54:28;-8.60;99.90
18225;DHT22;9237;48.590;8.854;2023-12-04T02:56:55;-8.60;99.90
18225;DHT22;9237;48.590;8.854;2023-12-04T02:59:23;-8.70;99.90
18225;DHT22;9237;48.590;8.854;2023-12-04T03:01:49;-8.70;99.90
18225;DHT22;9237;48.590;8.854;2023-12-04T03:04:16;-8.60;99.90
18225;DHT22;9237;48.590;8.854;2023-12-04T03:06:43;-8.50;99.90
18225;DHT22;9237;48.590;8.854;2023-12-04T03:09:10;-8.60;99.90
18225;DHT22;9237;48.590;8.854;2023-12-04T03:11:39;-8.50;99.90
18225;DHT22;9237;48.590;8.854;2023-12-04T03:14:06;-8.60;99.90
18225;DHT22;9237;48.590;8.854;2023-12-04T03:16:34;-8.60;99.90
18225;DHT22;9237;48.590;8.854;2023-12-04T03:19:01;-8.60;99.90
18225;DHT22;9237;48.590;8.854;2023-12-04T03:21:28;-8.70;99.90
18225;DHT22;9237;48.590;8.854;2023-12-04T03:23:55;-8.60;99.90
18225;DHT22;9237;48.590;8.854;2023-12-04T03:26:22;-8.50;99.90
18225;DHT22;9237;48.590;8.854;2023-12-04T03:28:48;-8.50;99.90
18225;DHT22;9237;48.590;8.854;2023-12-04T03:31:15;-8.50;99.90
18225;DHT22;9237;48.590;8.854;2023-12-04T03:33:43;-8.40;99.90
18225;DHT22;9237;48.590;8.854;2023-12-04T03:36:10;-8.50;99.90
18225;DHT22;9237;48.590;8.854;2023-12-04T03:38:37;-8.50;99.90
18225;DHT22;9237;48.590;8.854;2023-12-04T03:41:04;-8.60;99.90
18225;DHT22;9237;48.590;8.854;2023-12-04T03:43:30;-8.50;99.90
18225;DHT22;9237;48.590;8.854;2023-12-04T03:45:57;-8.50;99.90
18225;DHT22;9237;48.590;8.854;2023-12-04T03:48:24;-8.40;99.90
18225;DHT22;9237;48.590;8.854;2023-12-04T03:50:52;-8.40;99.90
18225;DHT22;9237;48.590;8.854;2023-12-04T03:53:19;-8.40;99.90
18225;DHT22;9237;48.590;8.854;2023-12-04T03:55:45;-8.30;99.90
18225;DHT22;9237;48.590;8.854;2023-12-04T03:58:12;-8.30;99.90
18225;DHT22;9237;48.590;8.854;2023-12-04T04:00:39;-8.20;99.90
18225;DHT22;9237;48.590;8.854;2023-12-04T04:03:06;-8.10;99.90
18225;DHT22;9237;48.590;8.854;2023-12-04T04:05:33;-8.10;99.90
18225;DHT22;9237;48.590;8.854;2023-12-04T04:08:02;-8.10;99.90
18225;DHT22;9237;48.590;8.854;2023-12-04T04:10:30;-8.10;99.90
18225;DHT22;9237;48.590;8.854;2023-12-04T04:12:57;-8.10;99.90
18225;DHT22;9237;48.590;8.854;2023-12-04T04:15:24;-8.10;99.90
18225;DHT22;9237;48.590;8.854;2023-12-04T04:17:51;-8.00;99.90
18225;DHT22;9237;48.590;8.854;2023-12-04T04:20:18;-7.90;99.90
18225;DHT22;9237;48.590;8.854;2023-12-04T04:22:44;-8.00;99.90
18225;DHT22;9237;48.590;8.854;2023-12-04T04:25:15;-8.00;99.90
18225;DHT22;9237;48.590;8.854;2023-12-04T04:27:42;-7.90;99.90
18225;DHT22;9237;48.590;8.854;2023-12-04T04:30:09;-7.90;99.90
18225;DHT22;9237;48.590;8.854;2023-12-04T04:32:36;-7.90;99.90
18225;DHT22;9237;48.590;8.854;2023-12-04T04:35:03;-7.80;99.90
18225;DHT22;9237;48.590;8.854;2023-12-04T04:37:30;-7.90;99.90
18225;DHT22;9237;48.590;8.854;2023-12-04T04:39:57;-7.90;99.90
18225;DHT22;9237;48.590;8.854;2023-12-04T04:42:25;-7.90;99.90
18225;DHT22;9237;48.590;8.854;2023-12-04T04:44:52;-7.90;99.90
18225;DHT22;9237;48.590;8.854;2023-12-04T04:47:18;-7.90;99.90
18225;DHT22;9237;48.590;8.854;2023-12-04T04:49:45;-7.80;99.90
18225;DHT22;9237;48.590;8.854;2023-12-04T04:52:12;-7.70;99.90
18225;DHT22;9237;48.590;8.854;2023-12-04T04:54:39;-7.70;99.90
18225;DHT22;9237;48.590;8.854;2023-12-04T04:57:05;-7.70;99.90
18225;DHT22;9237;48.590;8.854;2023-12-04T04:59:35;-7.70;99.90
18225;DHT22;9237;48.590;8.854;2023-12-04T05:02:02;-7.70;99.90
18225;DHT22;9237;48.590;8.854;2023-12-04T05:04:28;-7.70;99.90
18225;DHT22;9237;48.590;8.854;2023-12-04T05:06:55;-7.70;99.90
18225;DHT22;9237;48.590;8.854;2023-12-04T05:09:22;-7.60;99.90
18225;DHT22;9237;48.590;8.854;2023-12-04T05:11:49;-7.60;99.90
18225;DHT22;9237;48.590;8.854;2023-12-04T05:14:16;-7.60;99.90
18225;DHT22;9237;48.590;8.854;2023-12-04T05:16:44;-7.50;99.90
18225;DHT22;9237;48.590;8.854;2023-12-04T05:19:11;-7.50;99.90
18225;DHT22;9237;48.590;8.854;2023-12-04T05:21:38;-7.50;99.90
18225;DHT22;9237;48.590;8.854;2023-12-04T05:24:05;-7.50;99.90
18225;DHT22;9237;48.590;8.854;2023-12-04T05:26:31;-7.50;99.90
18225;DHT22;9237;48.590;8.854;2023-12-04T05:28:58;-7.50;99.90
18225;DHT22;9237;48.590;8.854;2023-12-04T05:31:26;-7.50;99.90
18225;DHT22;9237;48.590;8.854;2023-12-04T05:33:54;-7.50;99.90
18225;DHT22;9237;48.590;8.854;2023-12-04T05:36:20;-7.50;99.90
18225;DHT22;9237;48.590;8.854;2023-12-04T05:38:47;-7.50;99.90
18225;DHT22;9237;48.590;8.854;2023-12-04T05:41:14;-7.50;99.90
18225;DHT22;9237;48.590;8.854;2023-12-04T05:43:41;-7.40;99.90
18225;DHT22;9237;48.590;8.854;2023-12-04T05:46:07;-7.30;99.90
18225;DHT22;9237;48.590;8.854;2023-12-04T05:48:34;-7.30;99.90
18225;DHT22;9237;48.590;8.854;2023-12-04T05:51:03;-7.30;99.90
18225;DHT22;9237;48.590;8.854;2023-12-04T05:53:29;-7.30;99.90
18225;DHT22;9237;48.590;8.854;2023-12-04T05:55:56;-7.20;99.90
18225;DHT22;9237;48.590;8.854;2023-12-04T05:58:23;-7.10;99.90
18225;DHT22;9237;48.590;8.854;2023-12-04T06:00:49;-7.10;99.90
18225;DHT22;9237;48.590;8.854;2023-12-04T06:03:16;-7.10;99.90
18225;DHT22;9237;48.590;8.854;2023-12-04T06:05:43;-7.00;99.90
18225;DHT22;9237;48.590;8.854;2023-12-04T06:08:11;-7.00;99.90
18225;DHT22;9237;48.590;8.854;2023-12-04T06:10:38;-7.00;99.90
18225;DHT22;9237;48.590;8.854;2023-12-04T06:13:04;-6.90;99.90
18225;DHT22;9237;48.590;8.854;2023-12-04T06:15:31;-7.00;99.90
18225;DHT22;9237;48.590;8.854;2023-12-04T06:17:58;-6.90;99.90
18225;DHT22;9237;48.590;8.854;2023-12-04T06:20:24;-7.00;99.90
18225;DHT22;9237;48.590;8.854;2023-12-04T06:22:51;-7.00;99.90
18225;DHT22;9237;48.590;8.854;2023-12-04T06:25:20;-7.10;99.90
18225;DHT22;9237;48.590;8.854;2023-12-04T06:27:48;-7.10;99.90
18225;DHT22;9237;48.590;8.854;2023-12-04T06:30:17;-7.10;99.90
18225;DHT22;9237;48.590;8.854;2023-12-04T06:32:45;-7.10;99.90
18225;DHT22;9237;48.590;8.854;2023-12-04T06:35:13;-7.10;99.90
18225;DHT22;9237;48.590;8.854;2023-12-04T06:37:40;-7.10;99.90
18225;DHT22;9237;48.590;8.854;2023-12-04T06:40:08;-7.00;99.90
18225;DHT22;9237;48.590;8.854;2023-12-04T06:42:39;-7.00;99.90
18225;DHT22;9237;48.590;8.854;2023-12-04T06:45:07;-7.00;99.90
18225;DHT22;9237;48.590;8.854;2023-12-04T06:47:34;-7.00;99.90
18225;DHT22;9237;48.590;8.854;2023-12-04T06:50:03;-7.00;99.90
18225;DHT22;9237;48.590;8.854;2023-12-04T06:52:29;-7.00;99.90
18225;DHT22;9237;48.590;8.854;2023-12-04T06:54:56;-6.90;99.90
18225;DHT22;9237;48.590;8.854;2023-12-04T06:57:23;-6.90;99.90
18225;DHT22;9237;48.590;8.854;2023-12-04T06:59:51;-6.90;99.90
18225;DHT22;9237;48.590;8.854;2023-12-04T07:02:18;-6.80;99.90
18225;DHT22;9237;48.590;8.854;2023-12-04T07:04:44;-6.80;99.90
18225;DHT22;9237;48.590;8.854;2023-12-04T07:07:11;-6.80;99.90
18225;DHT22;9237;48.590;8.854;2023-12-04T07:09:38;-6.80;99.90
18225;DHT22;9237;48.590;8.854;2023-12-04T07:12:05;-6.70;99.90
18225;DHT22;9237;48.590;8.854;2023-12-04T07:14:32;-6.70;99.90
18225;DHT22;9237;48.590;8.854;2023-12-04T07:17:00;-6.70;99.90
18225;DHT22;9237;48.590;8.854;2023-12-04T07:19:27;-6.60;99.90
18225;DHT22;9237;48.590;8.854;2023-12-04T07:21:54;-6.60;99.90
18225;DHT22;9237;48.590;8.854;2023-12-04T07:24:21;-6.60;99.90
18225;DHT22;9237;48.590;8.854;2023-12-04T07:26:48;-6.50;99.90
18225;DHT22;9237;48.590;8.854;2023-12-04T07:29:15;-6.50;99.90
18225;DHT22;9237;48.590;8.854;2023-12-04T07:31:42;-6.40;99.90
18225;DHT22;9237;48.590;8.854;2023-12-04T07:34:10;-6.30;99.90
18225;DHT22;9237;48.590;8.854;2023-12-04T07:36:37;-6.40;99.90
18225;DHT22;9237;48.590;8.854;2023-12-04T07:39:03;-6.30;99.90
18225;DHT22;9237;48.590;8.854;2023-12-04T07:41:31;-6.20;99.90
18225;DHT22;9237;48.590;8.854;2023-12-04T07:43:58;-6.10;99.90
18225;DHT22;9237;48.590;8.854;2023-12-04T07:46:25;-6.10;99.90
18225;DHT22;9237;48.590;8.854;2023-12-04T07:48:52;-6.00;99.90
18225;DHT22;9237;48.590;8.854;2023-12-04T07:51:20;-6.00;99.90
18225;DHT22;9237;48.590;8.854;2023-12-04T07:53:47;-5.90;99.90
18225;DHT22;9237;48.590;8.854;2023-12-04T07:56:14;-5.70;99.90
18225;DHT22;9237;48.590;8.854;2023-12-04T07:58:41;-5.70;99.90
18225;DHT22;9237;48.590;8.854;2023-12-04T08:01:08;-5.60;99.90
18225;DHT22;9237;48.590;8.854;2023-12-04T08:03:35;-5.50;99.90
18225;DHT22;9237;48.590;8.854;2023-12-04T08:06:02;-5.40;99.90
18225;DHT22;9237;48.590;8.854;2023-12-04T08:08:30;-5.30;99.90
18225;DHT22;9237;48.590;8.854;2023-12-04T08:10:57;-5.20;99.90
18225;DHT22;9237;48.590;8.854;2023-12-04T08:13:24;-5.10;99.90
18225;DHT22;9237;48.590;8.854;2023-12-04T08:15:51;-5.00;99.90
18225;DHT22;9237;48.590;8.854;2023-12-04T08:18:17;-4.90;99.90
18225;DHT22;9237;48.590;8.854;2023-12-04T08:20:44;-4.90;99.90
18225;DHT22;9237;48.590;8.854;2023-12-04T08:23:12;-4.80;99.90
18225;DHT22;9237;48.590;8.854;2023-12-04T08:25:40;-4.70;99.90
18225;DHT22;9237;48.590;8.854;2023-12-04T08:28:06;-4.70;99.90
18225;DHT22;9237;48.590;8.854;2023-12-04T08:30:34;-4.60;99.90
18225;DHT22;9237;48.590;8.854;2023-12-04T08:33:01;-4.60;99.90
18225;DHT22;9237;48.590;8.854;2023-12-04T08:35:28;-4.50;99.90
18225;DHT22;9237;48.590;8.854;2023-12-04T08:37:55;-4.50;99.90
18225;DHT22;9237;48.590;8.854;2023-12-04T08:40:21;-4.50;99.90
18225;DHT22;9237;48.590;8.854;2023-12-04T08:42:50;-4.40;99.90
18225;DHT22;9237;48.590;8.854;2023-12-04T08:45:16;-4.40;99.90
18225;DHT22;9237;48.590;8.854;2023-12-04T08:47:44;-4.40;99.90
18225;DHT22;9237;48.590;8.854;2023-12-04T08:50:11;-4.40;99.90
18225;DHT22;9237;48.590;8.854;2023-12-04T08:52:38;-4.30;99.90
18225;DHT22;9237;48.590;8.854;2023-12-04T08:55:07;-4.20;99.90
18225;DHT22;9237;48.590;8.854;2023-12-04T08:57:34;-4.10;99.90
18225;DHT22;9237;48.590;8.854;2023-12-04T09:00:02;-4.10;99.90
18225;DHT22;9237;48.590;8.854;2023-12-04T09:02:30;-4.00;99.90
18225;DHT22;9237;48.590;8.854;2023-12-04T09:04:57;-3.80;99.90
18225;DHT22;9237;48.590;8.854;2023-12-04T09:07:24;-3.70;99.90
18225;DHT22;9237;48.590;8.854;2023-12-04T09:09:50;-3.70;99.90
18225;DHT22;9237;48.590;8.854;2023-12-04T09:12:17;-3.60;99.90
18225;DHT22;9237;48.590;8.854;2023-12-04T09:14:44;-3.50;99.90
18225;DHT22;9237;48.590;8.854;2023-12-04T09:17:13;-3.40;99.90
18225;DHT22;9237;48.590;8.854;2023-12-04T09:19:40;-3.40;99.90
18225;DHT22;9237;48.590;8.854;2023-12-04T09:22:06;-3.40;99.90
18225;DHT22;9237;48.590;8.854;2023-12-04T09:24:34;-3.50;99.90
18225;DHT22;9237;48.590;8.854;2023-12-04T09:27:00;-3.40;99.90
18225;DHT22;9237;48.590;8.854;2023-12-04T09:29:27;-3.30;99.90
18225;DHT22;9237;48.590;8.854;2023-12-04T09:31:55;-3.20;99.90
18225;DHT22;9237;48.590;8.854;2023-12-04T09:34:23;-3.40;99.90
18225;DHT22;9237;48.590;8.854;2023-12-04T09:36:49;-3.40;99.90
18225;DHT22;9237;48.590;8.854;2023-12-04T09:39:16;-3.20;99.90
18225;DHT22;9237;48.590;8.854;2023-12-04T09:41:44;-3.10;99.90
18225;DHT22;9237;48.590;8.854;2023-12-04T09:44:12;-3.10;99.90
18225;DHT22;9237;48.590;8.854;2023-12-04T09:46:39;-3.10;99.90
18225;DHT22;9237;48.590;8.854;2023-12-04T09:49:07;-2.90;99.90
18225;DHT22;9237;48.590;8.854;2023-12-04T09:51:37;-2.60;99.90
18225;DHT22;9237;48.590;8.854;2023-12-04T09:54:04;-2.40;99.90
18225;DHT22;9237;48.590;8.854;2023-12-04T09:56:33;-2.20;99.90
18225;DHT22;9237;48.590;8.854;2023-12-04T09:59:00;-2.20;99.90
18225;DHT22;9237;48.590;8.854;2023-12-04T10:01:28;-2.10;99.90
18225;DHT22;9237;48.590;8.854;2023-12-04T10:03:56;-2.00;99.90
18225;DHT22;9237;48.590;8.854;2023-12-04T10:06:27;-1.90;99.90
18225;DHT22;9237;48.590;8.854;2023-12-04T10:08:56;-1.80;99.90
18225;DHT22;9237;48.590;8.854;2023-12-04T10:11:23;-2.10;99.90
18225;DHT22;9237;48.590;8.854;2023-12-04T10:13:52;-2.10;99.90
18225;DHT22;9237;48.590;8.854;2023-12-04T10:16:32;-1.90;99.90
18225;DHT22;9237;48.590;8.854;2023-12-04T10:19:18;-1.70;99.90
18225;DHT22;9237;48.590;8.854;2023-12-04T10:21:46;-1.50;99.90
18225;DHT22;9237;48.590;8.854;2023-12-04T10:24:29;-1.30;99.90
18225;DHT22;9237;48.590;8.854;2023-12-04T10:26:56;-1.20;99.90
18225;DHT22;9237;48.590;8.854;2023-12-04T10:29:23;-1.10;99.90
18225;DHT22;9237;48.590;8.854;2023-12-04T10:31:51;-1.00;99.90
18225;DHT22;9237;48.590;8.854;2023-12-04T10:34:20;-0.90;99.90
18225;DHT22;9237;48.590;8.854;2023-12-04T10:36:51;-0.90;99.90
18225;DHT22;9237;48.590;8.854;2023-12-04T10:39:20;-0.80;99.90
18225;DHT22;9237;48.590;8.854;2023-12-04T10:41:59;-0.60;99.90
18225;DHT22;9237;48.590;8.854;2023-12-04T10:44:27;-0.40;99.90
18225;DHT22;9237;48.590;8.854;2023-12-04T10:46:55;-0.20;99.90
18225;DHT22;9237;48.590;8.854;2023-12-04T10:49:26;-0.20;99.90
18225;DHT22;9237;48.590;8.854;2023-12-04T10:54:23;-0.50;99.90
18225;DHT22;9237;48.590;8.854;2023-12-04T10:56:52;-0.60;99.90
18225;DHT22;9237;48.590;8.854;2023-12-04T10:59:22;-0.60;99.90
18225;DHT22;9237;48.590;8.854;2023-12-04T11:01:53;-0.70;99.90
18225;DHT22;9237;48.590;8.854;2023-12-04T11:04:23;-0.80;99.90
18225;DHT22;9237;48.590;8.854;2023-12-04T11:06:53;-0.90;99.90
18225;DHT22;9237;48.590;8.854;2023-12-04T11:09:22;-0.80;99.90
18225;DHT22;9237;48.590;8.854;2023-12-04T11:11:57;-0.70;99.90
18225;DHT22;9237;48.590;8.854;2023-12-04T11:14:25;-0.80;99.90
18225;DHT22;9237;48.590;8.854;2023-12-04T11:16:59;-0.80;99.90
18225;DHT22;9237;48.590;8.854;2023-12-04T11:19:32;-0.70;99.90
18225;DHT22;9237;48.590;8.854;2023-12-04T11:22:02;-0.50;99.90
18225;DHT22;9237;48.590;8.854;2023-12-04T11:24:31;-0.20;99.90
18225;DHT22;9237;48.590;8.854;2023-12-04T11:26:58;-0.20;99.90
18225;DHT22;9237;48.590;8.854;2023-12-04T11:29:25;-0.10;99.90
18225;DHT22;9237;48.590;8.854;2023-12-04T11:31:52;-0.10;99.90
18225;DHT22;9237;48.590;8.854;2023-12-04T11:34:19;-0.20;99.90
18225;DHT22;9237;48.590;8.854;2023-12-04T11:36:46;-0.20;99.90
18225;DHT22;9237;48.590;8.854;2023-12-04T11:39:13;-0.40;99.90
18225;DHT22;9237;48.590;8.854;2023-12-04T11:41:41;-0.40;99.90
18225;DHT22;9237;48.590;8.854;2023-12-04T11:44:12;-0.30;99.90
18225;DHT22;9237;48.590;8.854;2023-12-04T11:46:54;-0.30;99.90
18225;DHT22;9237;48.590;8.854;2023-12-04T11:49:27;-0.30;99.90
18225;DHT22;9237;48.590;8.854;2023-12-04T11:51:54;-0.30;99.90
18225;DHT22;9237;48.590;8.854;2023-12-04T11:54:22;-0.30;99.90
18225;DHT22;9237;48.590;8.854;2023-12-04T11:57:00;-0.30;99.90
18225;DHT22;9237;48.590;8.854;2023-12-04T11:59:29;-0.40;99.90
18225;DHT22;9237;48.590;8.854;2023-12-04T12:02:01;-0.20;99.90
18225;DHT22;9237;48.590;8.854;2023-12-04T12:04:27;-0.10;99.90
18225;DHT22;9237;48.590;8.854;2023-12-04T12:06:54;0.20;99.90
18225;DHT22;9237;48.590;8.854;2023-12-04T12:09:22;0.30;99.90
18225;DHT22;9237;48.590;8.854;2023-12-04T12:11:49;0.60;99.90
18225;DHT22;9237;48.590;8.854;2023-12-04T12:14:21;0.60;99.90
18225;DHT22;9237;48.590;8.854;2023-12-04T12:16:48;0.70;99.90
18225;DHT22;9237;48.590;8.854;2023-12-04T12:19:14;0.70;99.90
18225;DHT22;9237;48.590;8.854;2023-12-04T12:21:44;0.50;99.90
18225;DHT22;9237;48.590;8.854;2023-12-04T12:24:12;0.50;99.90
18225;DHT22;9237;48.590;8.854;2023-12-04T12:26:38;0.50;99.90
18225;DHT22;9237;48.590;8.854;2023-12-04T12:29:05;0.50;99.90
18225;DHT22;9237;48.590;8.854;2023-12-04T12:31:33;0.50;99.90
18225;DHT22;9237;48.590;8.854;2023-12-04T12:34:00;0.40;99.90
18225;DHT22;9237;48.590;8.854;2023-12-04T12:36:28;0.20;99.90
18225;DHT22;9237;48.590;8.854;2023-12-04T12:38:55;-0.10;99.90
18225;DHT22;9237;48.590;8.854;2023-12-04T12:41:22;-0.20;99.90
18225;DHT22;9237;48.590;8.854;2023-12-04T12:43:51;-0.20;99.90
18225;DHT22;9237;48.590;8.854;2023-12-04T12:46:18;-0.20;99.90
18225;DHT22;9237;48.590;8.854;2023-12-04T12:48:47;-0.10;99.90
18225;DHT22;9237;48.590;8.854;2023-12-04T12:51:13;0.00;99.90
18225;DHT22;9237;48.590;8.854;2023-12-04T12:53:40;0.10;99.90
18225;DHT22;9237;48.590;8.854;2023-12-04T12:56:08;0.20;99.90
18225;DHT22;9237;48.590;8.854;2023-12-04T12:58:35;0.30;99.90
18225;DHT22;9237;48.590;8.854;2023-12-04T13:01:02;0.30;99.90
18225;DHT22;9237;48.590;8.854;2023-12-04T13:03:30;0.20;99.90
18225;DHT22;9237;48.590;8.854;2023-12-04T13:05:59;0.30;99.90
18225;DHT22;9237;48.590;8.854;2023-12-04T13:08:25;0.20;99.90
18225;DHT22;9237;48.590;8.854;2023-12-04T13:10:53;0.20;99.90
18225;DHT22;9237;48.590;8.854;2023-12-04T13:13:20;0.10;99.90
18225;DHT22;9237;48.590;8.854;2023-12-04T13:15:47;0.10;99.90
18225;DHT22;9237;48.590;8.854;2023-12-04T13:18:14;-0.20;99.90
18225;DHT22;9237;48.590;8.854;2023-12-04T13:20:40;-0.20;99.90
18225;DHT22;9237;48.590;8.854;2023-12-04T13:23:10;-0.20;99.90
18225;DHT22;9237;48.590;8.854;2023-12-04T13:25:36;-0.20;99.90
18225;DHT22;9237;48.590;8.854;2023-12-04T13:28:05;0.00;99.90
18225;DHT22;9237;48.590;8.854;2023-12-04T13:30:32;0.00;99.90
18225;DHT22;9237;48.590;8.854;2023-12-04T13:33:01;0.20;99.90
18225;DHT22;9237;48.590;8.854;2023-12-04T13:35:28;0.20;99.90
18225;DHT22;9237;48.590;8.854;2023-12-04T13:37:56;0.30;99.90
18225;DHT22;9237;48.590;8.854;2023-12-04T13:40:26;0.30;99.90
18225;DHT22;9237;48.590;8.854;2023-12-04T13:42:58;0.20;99.90
18225;DHT22;9237;48.590;8.854;2023-12-04T13:45:42;0.20;99.90
18225;DHT22;9237;48.590;8.854;2023-12-04T13:48:10;0.20;99.90
18225;DHT22;9237;48.590;8.854;2023-12-04T13:50:37;0.20;99.90
18225;DHT22;9237;48.590;8.854;2023-12-04T13:53:03;0.20;99.90
18225;DHT22;9237;48.590;8.854;2023-12-04T13:55:34;0.30;99.90
18225;DHT22;9237;48.590;8.854;2023-12-04T13:58:13;0.20;99.90
18225;DHT22;9237;48.590;8.854;2023-12-04T14:01:03;0.30;99.90
18225;DHT22;9237;48.590;8.854;2023-12-04T14:03:39;0.40;99.90
18225;DHT22;9237;48.590;8.854;2023-12-04T14:06:06;0.50;99.90
18225;DHT22;9237;48.590;8.854;2023-12-04T14:08:33;0.50;99.90
18225;DHT22;9237;48.590;8.854;2023-12-04T14:11:02;1.00;99.90
18225;DHT22;9237;48.590;8.854;2023-12-04T14:13:31;0.50;99.90
18225;DHT22;9237;48.590;8.854;2023-12-04T14:15:58;0.40;99.90
18225;DHT22;9237;48.590;8.854;2023-12-04T14:18:27;0.40;99.90
18225;DHT22;9237;48.590;8.854;2023-12-04T14:20:55;0.40;99.90
18225;DHT22;9237;48.590;8.854;2023-12-04T14:23:23;0.30;99.90
18225;DHT22;9237;48.590;8.854;2023-12-04T14:25:50;0.10;99.90
18225;DHT22;9237;48.590;8.854;2023-12-04T14:28:20;-0.10;99.90
18225;DHT22;9237;48.590;8.854;2023-12-04T14:30:47;-0.10;99.90
18225;DHT22;9237;48.590;8.854;2023-12-04T14:33:14;-0.10;99.90
18225;DHT22;9237;48.590;8.854;2023-12-04T14:35:43;-0.20;99.90
18225;DHT22;9237;48.590;8.854;2023-12-04T14:38:10;-0.20;99.90
18225;DHT22;9237;48.590;8.854;2023-12-04T14:40:37;-0.20;99.90
18225;DHT22;9237;48.590;8.854;2023-12-04T14:43:04;-0.20;99.90
18225;DHT22;9237;48.590;8.854;2023-12-04T14:45:36;-0.10;99.90
18225;DHT22;9237;48.590;8.854;2023-12-04T14:48:03;-0.20;99.90
18225;DHT22;9237;48.590;8.854;2023-12-04T14:50:33;-0.20;99.90
18225;DHT22;9237;48.590;8.854;2023-12-04T14:53:01;-0.20;99.90
18225;DHT22;9237;48.590;8.854;2023-12-04T14:55:42;-0.30;99.90
18225;DHT22;9237;48.590;8.854;2023-12-04T14:58:26;-0.30;99.90
18225;DHT22;9237;48.590;8.854;2023-12-04T15:01:29;-0.30;99.90
18225;DHT22;9237;48.590;8.854;2023-12-04T15:04:25;-0.40;99.90
18225;DHT22;9237;48.590;8.854;2023-12-04T15:07:23;-0.40;99.90
18225;DHT22;9237;48.590;8.854;2023-12-04T15:10:32;-0.40;99.90
18225;DHT22;9237;48.590;8.854;2023-12-04T15:13:27;-0.50;99.90
18225;DHT22;9237;48.590;8.854;2023-12-04T15:16:20;-0.40;99.90
18225;DHT22;9237;48.590;8.854;2023-12-04T15:18:57;-0.50;99.90
18225;DHT22;9237;48.590;8.854;2023-12-04T15:21:56;-0.50;99.90
18225;DHT22;9237;48.590;8.854;2023-12-04T15:24:22;-0.50;99.90
18225;DHT22;9237;48.590;8.854;2023-12-04T15:26:49;-0.50;99.90
18225;DHT22;9237;48.590;8.854;2023-12-04T15:29:15;-0.50;99.90
18225;DHT22;9237;48.590;8.854;2023-12-04T15:31:47;-0.50;99.90
18225;DHT22;9237;48.590;8.854;2023-12-04T15:34:14;-0.50;99.90
18225;DHT22;9237;48.590;8.854;2023-12-04T15:36:42;-0.50;99.90
18225;DHT22;9237;48.590;8.854;2023-12-04T15:39:08;-0.50;99.90
18225;DHT22;9237;48.590;8.854;2023-12-04T15:41:35;-0.50;99.90
18225;DHT22;9237;48.590;8.854;2023-12-04T15:44:01;-0.50;99.90
18225;DHT22;9237;48.590;8.854;2023-12-04T15:46:28;-0.60;99.90
18225;DHT22;9237;48.590;8.854;2023-12-04T15:48:55;-0.60;99.90
18225;DHT22;9237;48.590;8.854;2023-12-04T15:51:23;-0.60;99.90
18225;DHT22;9237;48.590;8.854;2023-12-04T15:53:50;-0.50;99.90
18225;DHT22;9237;48.590;8.854;2023-12-04T15:56:16;-0.60;99.90
18225;DHT22;9237;48.590;8.854;2023-12-04T15:58:43;-0.60;99.90